Time;durP1;ratioP1;P1;durP2;ratioP2;P2;SDS_P1;SDS_P2;PMS_P1;PMS_P2;Temp;Humidity;BMP_temperature;BMP_pressure;BME280_temperature;BME280_humidity;BME280_pressure;Samples;Min_cycle;Max_cycle;Signal;HPM_P1;HPM_P2
2023/06/06 04:21:13;;;;;;;;;;;16.10;99.90;;;;;;4592926;19;20278;-24
2023/06/06 04:22:45;;;;;;;;;;;16.10;99.90;;;;;;4591806;19;20281;-22
2023/06/06 04:24:16;;;;;;;;;;;16.10;99.90;;;;;;4591555;19;19915;-22
2023/06/06 04:25:48;;;;;;;;;;;16.10;99.90;;;;;;4592116;19;20245;-23
2023/06/06 04:27:23;;;;;;;;;;;16.10;99.90;;;;;;4592682;19;19911;-23
2023/06/06 04:28:58;;;;;;;;;;;16.20;99.90;;;;;;4592699;19;19915;-23
2023/06/06 04:30:32;;;;;;;;;;;16.20;99.90;;;;;;4592373;19;19915;-24
2023/06/06 04:32:04;;;;;;;;;;;16.20;99.90;;;;;;4592794;19;19926;-25
2023/06/06 04:33:35;;;;;;;;;;;16.30;99.90;;;;;;4592673;19;19974;-24
2023/06/06 04:35:07;;;;;;;;;;;16.30;99.90;;;;;;4593139;19;19910;-24
2023/06/06 04:36:40;;;;;;;;;;;16.30;99.90;;;;;;4592263;19;19918;-25
2023/06/06 04:38:10;;;;;;;;;;;16.30;99.90;;;;;;4592708;19;20343;-23
2023/06/06 04:39:41;;;;;;;;;;;16.30;99.90;;;;;;4592522;19;19982;-25
2023/06/06 04:41:14;;;;;;;;;;;16.40;99.90;;;;;;4592346;19;19932;-27
2023/06/06 04:43:01;;;;;;;;;;;16.40;99.90;;;;;;4591024;19;19919;-25
2023/06/06 04:44:32;;;;;;;;;;;16.40;99.90;;;;;;4591759;19;19911;-26
2023/06/06 04:46:04;;;;;;;;;;;16.40;99.90;;;;;;4592640;19;19927;-25
2023/06/06 04:47:38;;;;;;;;;;;16.50;99.90;;;;;;4592894;19;20325;-23
2023/06/06 04:49:10;;;;;;;;;;;16.50;99.90;;;;;;4592166;19;20241;-26
2023/06/06 04:50:42;;;;;;;;;;;16.50;99.90;;;;;;4592212;19;19923;-30
2023/06/06 04:52:14;;;;;;;;;;;16.50;99.90;;;;;;4592299;19;19923;-24
2023/06/06 04:53:46;;;;;;;;;;;16.50;99.90;;;;;;4591746;19;19932;-23
2023/06/06 04:55:18;;;;;;;;;;;16.50;99.90;;;;;;4590965;19;19911;-24
2023/06/06 04:56:51;;;;;;;;;;;16.60;99.90;;;;;;4592120;19;19918;-28
2023/06/06 04:58:22;;;;;;;;;;;16.50;99.90;;;;;;4591191;19;20300;-27
2023/06/06 04:59:53;;;;;;;;;;;16.50;99.90;;;;;;4591491;19;19918;-27
2023/06/06 05:01:26;;;;;;;;;;;16.50;99.90;;;;;;4591652;19;19918;-27
2023/06/06 05:02:57;;;;;;;;;;;16.50;99.90;;;;;;4592570;19;19917;-23
2023/06/06 05:04:32;;;;;;;;;;;16.50;99.90;;;;;;4591801;19;19915;-24
2023/06/06 05:06:02;;;;;;;;;;;16.60;99.90;;;;;;4590703;19;19915;-24
2023/06/06 05:09:43;;;;;;;;;;;16.60;99.90;;;;;;4591753;19;19919;-26
2023/06/06 05:11:13;;;;;;;;;;;16.60;99.90;;;;;;4591153;19;19942;-23
2023/06/06 05:12:44;;;;;;;;;;;16.60;99.90;;;;;;4590932;19;19983;-24
2023/06/06 05:14:16;;;;;;;;;;;16.60;99.90;;;;;;4591356;19;19922;-24
2023/06/06 05:15:47;;;;;;;;;;;16.60;99.90;;;;;;4591934;19;19974;-24
2023/06/06 05:17:20;;;;;;;;;;;16.70;99.90;;;;;;4591959;19;19950;-24
2023/06/06 05:18:51;;;;;;;;;;;16.70;99.90;;;;;;4592211;19;19918;-23
2023/06/06 05:20:24;;;;;;;;;;;16.70;99.90;;;;;;4590939;19;19936;-27
2023/06/06 05:21:55;;;;;;;;;;;16.70;99.90;;;;;;4590052;19;19926;-23
2023/06/06 05:23:28;;;;;;;;;;;16.70;99.90;;;;;;4589191;19;20398;-27
2023/06/06 05:24:59;;;;;;;;;;;16.70;99.90;;;;;;4590747;19;19988;-24
2023/06/06 05:26:30;;;;;;;;;;;16.70;99.90;;;;;;4591625;19;19933;-23
2023/06/06 05:28:01;;;;;;;;;;;16.70;99.90;;;;;;4591646;19;19922;-25
2023/06/06 05:29:34;;;;;;;;;;;16.70;99.90;;;;;;4590166;19;19918;-24
2023/06/06 05:31:07;;;;;;;;;;;16.70;99.90;;;;;;4590210;19;19932;-24
2023/06/06 05:32:38;;;;;;;;;;;16.80;99.90;;;;;;4590292;19;19943;-24
2023/06/06 05:34:09;;;;;;;;;;;16.80;99.90;;;;;;4591198;19;20305;-22
2023/06/06 05:35:40;;;;;;;;;;;16.80;99.90;;;;;;4591071;19;19925;-24
2023/06/06 05:37:12;;;;;;;;;;;16.80;99.90;;;;;;4589936;19;20262;-24
2023/06/06 05:38:43;;;;;;;;;;;16.80;99.90;;;;;;4591155;19;19931;-23
2023/06/06 05:40:13;;;;;;;;;;;16.90;99.90;;;;;;4591368;19;19914;-25
2023/06/06 05:41:47;;;;;;;;;;;16.90;99.90;;;;;;4591130;19;19934;-23
2023/06/06 05:43:18;;;;;;;;;;;16.90;99.90;;;;;;4591259;19;19923;-23
2023/06/06 05:44:52;;;;;;;;;;;16.90;99.90;;;;;;4591095;19;19918;-23
2023/06/06 05:46:25;;;;;;;;;;;16.90;99.90;;;;;;4591390;19;20317;-29
2023/06/06 05:47:56;;;;;;;;;;;16.90;99.90;;;;;;4590002;19;20086;-23
2023/06/06 05:49:28;;;;;;;;;;;16.90;99.90;;;;;;4590582;19;19922;-24
2023/06/06 05:51:00;;;;;;;;;;;17.00;99.90;;;;;;4590076;19;19922;-26
2023/06/06 05:52:31;;;;;;;;;;;17.00;99.90;;;;;;4590058;19;19941;-24
2023/06/06 05:54:05;;;;;;;;;;;17.00;99.90;;;;;;4590420;19;19925;-27
2023/06/06 05:55:37;;;;;;;;;;;17.10;99.90;;;;;;4591297;19;19919;-24
2023/06/06 05:57:33;;;;;;;;;;;17.10;99.90;;;;;;4590125;19;19947;-27
2023/06/06 05:59:04;;;;;;;;;;;17.10;99.90;;;;;;4589945;19;19919;-25
2023/06/06 06:00:36;;;;;;;;;;;17.10;99.90;;;;;;4591269;19;19911;-25
2023/06/06 06:02:07;;;;;;;;;;;17.10;99.90;;;;;;4589978;19;19927;-23
2023/06/06 06:03:39;;;;;;;;;;;17.10;99.90;;;;;;4590121;19;19911;-27
2023/06/06 06:05:11;;;;;;;;;;;17.10;99.90;;;;;;4590584;19;19927;-24
2023/06/06 06:06:48;;;;;;;;;;;17.10;99.90;;;;;;4588414;19;19918;-23
2023/06/06 06:08:21;;;;;;;;;;;17.20;99.90;;;;;;4588635;19;19931;-24
2023/06/06 06:09:52;;;;;;;;;;;17.20;99.90;;;;;;4588962;19;19922;-27
2023/06/06 06:11:23;;;;;;;;;;;17.20;99.90;;;;;;4587741;19;20008;-24
2023/06/06 06:12:54;;;;;;;;;;;17.20;99.90;;;;;;4588489;19;19940;-23
2023/06/06 06:14:25;;;;;;;;;;;17.20;99.90;;;;;;4588750;19;20393;-24
2023/06/06 06:15:57;;;;;;;;;;;17.20;99.90;;;;;;4588667;19;19940;-25
2023/06/06 06:17:28;;;;;;;;;;;17.20;99.90;;;;;;4593397;19;19983;-24
2023/06/06 06:18:59;;;;;;;;;;;17.30;99.90;;;;;;4593102;19;19929;-24
2023/06/06 06:20:30;;;;;;;;;;;17.30;99.90;;;;;;4592453;19;19918;-23
2023/06/06 06:22:01;;;;;;;;;;;17.30;99.90;;;;;;4592422;19;19946;-28
2023/06/06 06:23:33;;;;;;;;;;;17.40;99.90;;;;;;4592825;19;19918;-26
2023/06/06 06:25:04;;;;;;;;;;;17.40;99.90;;;;;;4592883;19;20261;-24
2023/06/06 06:26:35;;;;;;;;;;;17.40;99.90;;;;;;4592910;19;19914;-26
2023/06/06 06:28:17;;;;;;;;;;;17.40;99.90;;;;;;4593175;19;20392;-27
2023/06/06 06:29:47;;;;;;;;;;;17.40;99.90;;;;;;4593626;19;20262;-25
2023/06/06 06:31:18;;;;;;;;;;;17.40;99.90;;;;;;4592918;19;19926;-26
2023/06/06 06:32:50;;;;;;;;;;;17.40;99.90;;;;;;4592863;19;19919;-27
2023/06/06 06:34:21;;;;;;;;;;;17.50;99.90;;;;;;4592782;19;19982;-25
2023/06/06 06:35:52;;;;;;;;;;;17.50;99.90;;;;;;4593635;19;19926;-23
2023/06/06 06:37:23;;;;;;;;;;;17.50;99.90;;;;;;4592615;19;19988;-25
2023/06/06 06:38:54;;;;;;;;;;;17.50;99.90;;;;;;4594978;19;19918;-25
2023/06/06 06:40:26;;;;;;;;;;;17.50;99.90;;;;;;4594204;19;20275;-25
2023/06/06 06:41:58;;;;;;;;;;;17.50;99.90;;;;;;4593499;19;20242;-23
2023/06/06 06:43:31;;;;;;;;;;;17.60;99.90;;;;;;4594348;19;19915;-24
2023/06/06 06:45:02;;;;;;;;;;;17.60;99.90;;;;;;4595402;19;19918;-24
2023/06/06 06:46:34;;;;;;;;;;;17.60;99.90;;;;;;4595188;19;19923;-23
2023/06/06 06:48:05;;;;;;;;;;;17.60;99.90;;;;;;4594370;19;19919;-29
2023/06/06 06:49:37;;;;;;;;;;;17.60;99.90;;;;;;4593176;19;19910;-23
2023/06/06 06:51:09;;;;;;;;;;;17.70;99.90;;;;;;4590985;19;19927;-28
2023/06/06 06:52:41;;;;;;;;;;;17.70;99.90;;;;;;4594061;19;19956;-27
2023/06/06 06:54:12;;;;;;;;;;;17.70;99.90;;;;;;4594028;19;19911;-25
2023/06/06 06:55:45;;;;;;;;;;;17.70;99.90;;;;;;4594158;19;19945;-23
2023/06/06 06:57:16;;;;;;;;;;;17.70;99.90;;;;;;4594635;19;19914;-24
2023/06/06 06:58:48;;;;;;;;;;;17.80;99.90;;;;;;4594539;19;19919;-25
2023/06/06 07:00:23;;;;;;;;;;;17.70;99.90;;;;;;4593024;19;19922;-24
2023/06/06 07:01:54;;;;;;;;;;;17.80;99.90;;;;;;4592112;19;19919;-28
2023/06/06 07:03:25;;;;;;;;;;;17.80;99.90;;;;;;4594166;19;19923;-27
2023/06/06 07:05:01;;;;;;;;;;;17.80;99.90;;;;;;4593581;19;19940;-24
2023/06/06 07:06:36;;;;;;;;;;;17.80;99.90;;;;;;4593968;19;19991;-22
2023/06/06 07:08:07;;;;;;;;;;;17.80;99.90;;;;;;4594138;19;19914;-26
2023/06/06 07:09:39;;;;;;;;;;;17.80;99.90;;;;;;4593418;19;19933;-25
2023/06/06 07:11:10;;;;;;;;;;;17.90;99.90;;;;;;4592569;19;19915;-24
2023/06/06 07:12:41;;;;;;;;;;;17.90;99.90;;;;;;4593885;19;19945;-23
2023/06/06 07:14:12;;;;;;;;;;;17.90;99.90;;;;;;4592509;19;20279;-27
2023/06/06 07:15:43;;;;;;;;;;;17.90;99.90;;;;;;4592966;19;19925;-27
2023/06/06 07:17:18;;;;;;;;;;;18.00;99.90;;;;;;4591086;19;19919;-24
2023/06/06 07:18:51;;;;;;;;;;;18.00;99.90;;;;;;4592924;19;19922;-27
2023/06/06 07:20:23;;;;;;;;;;;18.00;99.90;;;;;;4592247;19;20000;-24
2023/06/06 07:21:56;;;;;;;;;;;18.00;99.90;;;;;;4593605;19;19914;-26
2023/06/06 07:23:27;;;;;;;;;;;18.00;99.90;;;;;;4593487;19;19918;-23
2023/06/06 07:24:58;;;;;;;;;;;18.00;99.90;;;;;;4594064;19;19970;-28
2023/06/06 07:26:29;;;;;;;;;;;18.10;99.90;;;;;;4594217;19;19921;-24
2023/06/06 07:28:00;;;;;;;;;;;18.00;99.90;;;;;;4592045;19;20333;-25
2023/06/06 07:29:31;;;;;;;;;;;18.10;99.90;;;;;;4592889;19;19944;-28
2023/06/06 07:31:02;;;;;;;;;;;18.10;99.90;;;;;;4592425;19;19911;-27
2023/06/06 07:32:33;;;;;;;;;;;18.10;99.90;;;;;;4593376;19;19918;-24
2023/06/06 07:34:04;;;;;;;;;;;18.20;99.90;;;;;;4593442;19;19930;-25
2023/06/06 07:35:36;;;;;;;;;;;18.20;99.90;;;;;;4592287;19;19915;-23
2023/06/06 07:37:07;;;;;;;;;;;18.20;99.90;;;;;;4593210;19;19923;-23
2023/06/06 07:38:38;;;;;;;;;;;18.20;99.90;;;;;;4593075;19;19949;-26
2023/06/06 07:40:10;;;;;;;;;;;18.20;99.90;;;;;;4591550;19;19989;-25
2023/06/06 07:41:41;;;;;;;;;;;18.30;99.90;;;;;;4592778;19;19942;-24
2023/06/06 07:43:12;;;;;;;;;;;18.20;99.90;;;;;;4593642;19;19915;-29
2023/06/06 07:44:43;;;;;;;;;;;18.30;99.90;;;;;;4594112;19;19925;-26
2023/06/06 07:46:15;;;;;;;;;;;18.30;99.90;;;;;;4593202;19;19934;-24
2023/06/06 07:47:46;;;;;;;;;;;18.30;99.90;;;;;;4593486;19;19942;-24
2023/06/06 07:49:17;;;;;;;;;;;18.40;99.90;;;;;;4593848;19;19911;-25
2023/06/06 07:50:48;;;;;;;;;;;18.40;99.90;;;;;;4592191;19;20303;-25
2023/06/06 07:52:21;;;;;;;;;;;18.40;99.90;;;;;;4591962;19;19923;-26
2023/06/06 07:53:52;;;;;;;;;;;18.40;99.90;;;;;;4592536;19;19919;-24
2023/06/06 07:55:24;;;;;;;;;;;18.50;99.90;;;;;;4592659;19;20352;-24
2023/06/06 07:56:56;;;;;;;;;;;18.50;99.90;;;;;;4592310;19;19919;-23
2023/06/06 07:58:39;;;;;;;;;;;18.50;99.90;;;;;;4592003;19;20365;-24
2023/06/06 08:04:59;;;;;;;;;;;18.50;99.90;;;;;;4594749;19;19988;-24
2023/06/06 08:06:33;;;;;;;;;;;18.50;99.90;;;;;;4593005;19;19915;-29
2023/06/06 08:08:05;;;;;;;;;;;18.50;99.90;;;;;;4592251;19;19938;-23
2023/06/06 08:09:37;;;;;;;;;;;18.50;99.90;;;;;;4592319;19;20267;-26
2023/06/06 08:11:08;;;;;;;;;;;18.50;99.90;;;;;;4591977;19;20341;-24
2023/06/06 08:12:39;;;;;;;;;;;18.50;99.90;;;;;;4591910;19;19917;-28
2023/06/06 08:14:10;;;;;;;;;;;18.50;99.90;;;;;;4592664;19;19934;-27
2023/06/06 08:15:41;;;;;;;;;;;18.50;99.90;;;;;;4592298;19;19923;-22
2023/06/06 08:17:12;;;;;;;;;;;18.50;99.90;;;;;;4592701;19;19948;-23
2023/06/06 08:18:43;;;;;;;;;;;18.50;99.90;;;;;;4592489;19;19930;-23
2023/06/06 08:20:14;;;;;;;;;;;18.50;99.90;;;;;;4591816;19;19974;-27
2023/06/06 08:21:45;;;;;;;;;;;18.50;99.90;;;;;;4590614;19;19918;-29
2023/06/06 08:23:16;;;;;;;;;;;18.60;99.90;;;;;;4591751;19;19970;-24
2023/06/06 08:24:47;;;;;;;;;;;18.50;99.90;;;;;;4592839;19;19933;-27
2023/06/06 08:26:23;;;;;;;;;;;18.60;99.90;;;;;;4593069;19;19931;-26
2023/06/06 08:27:54;;;;;;;;;;;18.60;99.90;;;;;;4592329;19;19925;-25
2023/06/06 08:29:26;;;;;;;;;;;18.60;99.90;;;;;;4592452;19;19947;-22
2023/06/06 08:30:56;;;;;;;;;;;18.60;99.90;;;;;;4592862;19;19915;-24
2023/06/06 08:32:30;;;;;;;;;;;18.60;99.80;;;;;;4592445;19;19978;-27
2023/06/06 08:34:01;;;;;;;;;;;18.60;99.90;;;;;;4592507;19;20325;-28
2023/06/06 08:35:32;;;;;;;;;;;18.60;99.70;;;;;;4592616;19;19922;-24
2023/06/06 08:37:03;;;;;;;;;;;18.60;99.90;;;;;;4593122;19;19948;-29
2023/06/06 08:38:36;;;;;;;;;;;18.60;99.90;;;;;;4591490;19;19982;-24
2023/06/06 08:40:08;;;;;;;;;;;18.60;99.80;;;;;;4589677;19;19993;-24
2023/06/06 08:41:42;;;;;;;;;;;18.60;99.30;;;;;;4594037;19;20254;-25
2023/06/06 08:43:13;;;;;;;;;;;18.60;98.10;;;;;;4591298;19;19918;-26
2023/06/06 08:44:45;;;;;;;;;;;18.60;98.20;;;;;;4590817;19;20274;-23
2023/06/06 08:46:16;;;;;;;;;;;18.60;98.10;;;;;;4590248;19;19943;-24
2023/06/06 08:47:48;;;;;;;;;;;18.60;98.80;;;;;;4591866;19;20242;-25
2023/06/06 08:49:19;;;;;;;;;;;18.60;98.10;;;;;;4592894;19;19922;-24
2023/06/06 08:50:50;;;;;;;;;;;18.60;98.20;;;;;;4590439;19;19944;-24
2023/06/06 08:52:21;;;;;;;;;;;18.70;99.00;;;;;;4590455;19;19922;-24
2023/06/06 08:53:52;;;;;;;;;;;18.60;98.20;;;;;;4591752;19;20321;-23
2023/06/06 08:55:23;;;;;;;;;;;18.70;98.20;;;;;;4590770;19;19915;-29
2023/06/06 08:56:54;;;;;;;;;;;18.70;98.00;;;;;;4591273;19;20339;-29
2023/06/06 08:58:26;;;;;;;;;;;18.70;97.20;;;;;;4592039;19;19925;-24
2023/06/06 08:59:57;;;;;;;;;;;18.70;97.70;;;;;;4592113;19;19915;-22
2023/06/06 09:01:28;;;;;;;;;;;18.70;97.80;;;;;;4590480;19;19939;-29
2023/06/06 09:02:59;;;;;;;;;;;18.70;98.20;;;;;;4591056;19;20276;-23
2023/06/06 09:04:31;;;;;;;;;;;18.70;97.20;;;;;;4591778;19;19926;-25
2023/06/06 09:06:03;;;;;;;;;;;18.70;97.20;;;;;;4591863;19;19918;-29
2023/06/06 09:07:34;;;;;;;;;;;18.80;97.40;;;;;;4590339;19;19925;-23
2023/06/06 09:09:07;;;;;;;;;;;18.70;97.10;;;;;;4591327;19;20391;-26
2023/06/06 09:10:38;;;;;;;;;;;18.80;97.40;;;;;;4589583;19;20334;-23
2023/06/06 09:12:10;;;;;;;;;;;18.80;98.20;;;;;;4591613;19;19945;-23
2023/06/06 09:13:41;;;;;;;;;;;18.80;96.90;;;;;;4591419;19;19911;-24
2023/06/06 09:15:12;;;;;;;;;;;18.80;97.40;;;;;;4591567;19;19919;-25
2023/06/06 09:16:43;;;;;;;;;;;18.80;97.50;;;;;;4592126;19;20325;-23
2023/06/06 09:18:15;;;;;;;;;;;18.80;98.20;;;;;;4589839;19;19918;-24
2023/06/06 09:19:47;;;;;;;;;;;18.80;97.80;;;;;;4590927;19;19939;-28
2023/06/06 09:21:17;;;;;;;;;;;18.80;96.50;;;;;;4590738;19;19927;-27
2023/06/06 09:22:49;;;;;;;;;;;18.80;95.90;;;;;;4589801;19;19954;-28
2023/06/06 09:24:21;;;;;;;;;;;18.80;95.40;;;;;;4590668;19;19919;-23
2023/06/06 09:25:52;;;;;;;;;;;18.80;95.40;;;;;;4591288;19;19977;-25
2023/06/06 09:27:27;;;;;;;;;;;18.90;96.20;;;;;;4591428;19;19974;-27
2023/06/06 09:29:04;;;;;;;;;;;18.80;96.80;;;;;;4592090;19;19930;-26
2023/06/06 09:30:35;;;;;;;;;;;18.90;96.80;;;;;;4590526;19;19911;-23
2023/06/06 09:32:06;;;;;;;;;;;18.90;97.10;;;;;;4590859;19;19931;-25
2023/06/06 09:33:41;;;;;;;;;;;18.90;96.00;;;;;;4591589;19;19927;-23
2023/06/06 09:35:13;;;;;;;;;;;19.00;95.90;;;;;;4590700;19;19962;-24
2023/06/06 09:36:44;;;;;;;;;;;19.00;94.90;;;;;;4589577;19;19915;-25
2023/06/06 09:38:16;;;;;;;;;;;19.00;95.90;;;;;;4590463;19;19932;-24
2023/06/06 09:40:26;;;;;;;;;;;19.00;95.20;;;;;;4589507;19;19988;-24
2023/06/06 09:41:57;;;;;;;;;;;19.00;94.50;;;;;;4590429;19;19924;-23
2023/06/06 09:43:30;;;;;;;;;;;19.10;94.90;;;;;;4589431;19;20000;-27
2023/06/06 09:45:04;;;;;;;;;;;19.10;94.90;;;;;;4587654;19;19974;-26
2023/06/06 09:46:37;;;;;;;;;;;19.10;95.20;;;;;;4587643;19;19952;-27
2023/06/06 09:48:09;;;;;;;;;;;19.10;95.40;;;;;;4588685;19;19923;-24
2023/06/06 09:49:40;;;;;;;;;;;19.10;95.50;;;;;;4588940;19;19918;-24
2023/06/06 09:51:12;;;;;;;;;;;19.20;94.90;;;;;;4589050;19;20404;-25
2023/06/06 09:52:43;;;;;;;;;;;19.20;95.50;;;;;;4588711;19;19918;-27
2023/06/06 09:54:14;;;;;;;;;;;19.20;95.50;;;;;;4588950;19;19930;-23
2023/06/06 09:55:45;;;;;;;;;;;19.20;94.70;;;;;;4588202;19;19954;-23
2023/06/06 09:57:16;;;;;;;;;;;19.20;94.50;;;;;;4588218;19;19921;-27
2023/06/06 09:58:48;;;;;;;;;;;19.20;94.30;;;;;;4588606;19;19914;-27
2023/06/06 10:00:20;;;;;;;;;;;19.20;94.70;;;;;;4588160;19;19922;-23
2023/06/06 10:01:53;;;;;;;;;;;19.20;94.10;;;;;;4589819;19;19945;-25
2023/06/06 10:03:27;;;;;;;;;;;19.20;94.80;;;;;;4588554;19;19910;-25
2023/06/06 10:04:58;;;;;;;;;;;19.30;94.50;;;;;;4589964;19;19974;-24
2023/06/06 10:06:37;;;;;;;;;;;19.30;94.20;;;;;;4588578;19;19922;-24
2023/06/06 10:08:09;;;;;;;;;;;19.30;94.40;;;;;;4588141;19;19936;-24
2023/06/06 10:09:40;;;;;;;;;;;19.30;94.00;;;;;;4588456;19;19940;-25
2023/06/06 10:11:11;;;;;;;;;;;19.30;94.10;;;;;;4587550;19;19919;-24
2023/06/06 10:12:43;;;;;;;;;;;19.30;94.90;;;;;;4588107;19;19967;-24
2023/06/06 10:14:15;;;;;;;;;;;19.30;95.20;;;;;;4587589;19;20397;-23
2023/06/06 10:15:47;;;;;;;;;;;19.30;94.20;;;;;;4587868;19;19976;-24
2023/06/06 10:17:19;;;;;;;;;;;19.40;94.10;;;;;;4587635;19;19915;-25
2023/06/06 10:18:49;;;;;;;;;;;19.40;94.30;;;;;;4588577;19;19915;-27
2023/06/06 10:20:21;;;;;;;;;;;19.40;94.60;;;;;;4588578;19;19926;-23
2023/06/06 10:21:52;;;;;;;;;;;19.40;94.60;;;;;;4591006;19;19911;-27
2023/06/06 10:23:23;;;;;;;;;;;19.40;93.90;;;;;;4589405;19;19978;-23
2023/06/06 10:24:54;;;;;;;;;;;19.40;93.70;;;;;;4588625;19;19915;-24
2023/06/06 10:26:48;;;;;;;;;;;19.40;94.20;;;;;;4588776;19;19919;-24
2023/06/06 10:28:25;;;;;;;;;;;19.50;94.70;;;;;;4588809;19;19918;-25
2023/06/06 10:30:01;;;;;;;;;;;19.50;94.30;;;;;;4588941;19;20341;-24
2023/06/06 10:31:49;;;;;;;;;;;19.50;94.10;;;;;;4590396;19;19927;-28
2023/06/06 10:33:48;;;;;;;;;;;19.50;94.40;;;;;;4589062;19;19918;-25
2023/06/06 10:35:20;;;;;;;;;;;19.50;94.10;;;;;;4589375;19;20345;-26
2023/06/06 10:36:51;;;;;;;;;;;19.50;93.70;;;;;;4590006;19;19918;-24
2023/06/06 10:38:21;;;;;;;;;;;19.50;94.40;;;;;;4588154;19;19943;-29
2023/06/06 10:40:08;;;;;;;;;;;19.50;97.10;;;;;;4589357;19;19948;-26
2023/06/06 10:41:51;;;;;;;;;;;19.50;93.70;;;;;;4589897;19;19993;-26
2023/06/06 10:43:34;;;;;;;;;;;19.50;94.40;;;;;;4588310;19;19943;-25
2023/06/06 10:45:09;;;;;;;;;;;19.50;94.20;;;;;;4590362;19;20330;-24
2023/06/06 10:46:40;;;;;;;;;;;19.50;94.20;;;;;;4589267;19;19923;-27
2023/06/06 10:48:13;;;;;;;;;;;19.60;94.70;;;;;;4589974;19;19927;-24
2023/06/06 10:50:02;;;;;;;;;;;19.60;94.70;;;;;;4589970;19;19990;-25
2023/06/06 10:51:34;;;;;;;;;;;19.50;94.00;;;;;;4589434;19;19922;-24
2023/06/06 10:53:08;;;;;;;;;;;19.60;94.10;;;;;;4588570;19;19935;-24
2023/06/06 10:54:41;;;;;;;;;;;19.60;94.20;;;;;;4588563;19;19922;-28
2023/06/06 10:56:17;;;;;;;;;;;19.60;94.10;;;;;;4589448;19;19915;-24
2023/06/06 10:57:54;;;;;;;;;;;19.60;94.50;;;;;;4588528;19;19915;-23
2023/06/06 10:59:26;;;;;;;;;;;19.60;95.00;;;;;;4587962;19;19929;-28
2023/06/06 11:00:59;;;;;;;;;;;19.60;94.40;;;;;;4589424;19;19921;-28
2023/06/06 11:02:36;;;;;;;;;;;19.60;94.00;;;;;;4590131;19;19915;-25
2023/06/06 11:04:18;;;;;;;;;;;19.60;94.00;;;;;;4593140;19;19931;-24
2023/06/06 11:06:11;;;;;;;;;;;19.60;94.60;;;;;;4593623;19;19970;-28
2023/06/06 11:07:46;;;;;;;;;;;19.60;94.10;;;;;;4593834;19;19935;-25
2023/06/06 11:09:22;;;;;;;;;;;19.60;94.40;;;;;;4593920;19;19921;-25
2023/06/06 11:10:53;;;;;;;;;;;19.60;94.80;;;;;;4593093;19;19919;-25
2023/06/06 11:12:26;;;;;;;;;;;19.70;94.20;;;;;;4593364;19;19914;-26
2023/06/06 11:14:01;;;;;;;;;;;19.60;94.40;;;;;;4594217;19;19922;-23
2023/06/06 11:15:32;;;;;;;;;;;19.60;94.20;;;;;;4594444;19;19919;-24
2023/06/06 11:17:03;;;;;;;;;;;19.70;94.40;;;;;;4592946;19;19938;-25
2023/06/06 11:18:35;;;;;;;;;;;19.70;94.50;;;;;;4593477;19;19930;-27
2023/06/06 11:20:09;;;;;;;;;;;19.70;94.60;;;;;;4593068;19;20261;-23
2023/06/06 11:21:40;;;;;;;;;;;19.70;94.20;;;;;;4592474;19;19919;-24
2023/06/06 11:23:12;;;;;;;;;;;19.70;94.50;;;;;;4592519;19;20341;-28
2023/06/06 11:24:43;;;;;;;;;;;19.70;94.30;;;;;;4593527;19;19988;-26
2023/06/06 11:26:14;;;;;;;;;;;19.70;94.20;;;;;;4593449;19;20251;-25
2023/06/06 11:27:45;;;;;;;;;;;19.70;94.60;;;;;;4594180;19;19922;-26
2023/06/06 11:29:18;;;;;;;;;;;19.70;94.50;;;;;;4592106;19;19926;-24
2023/06/06 11:30:51;;;;;;;;;;;19.70;94.10;;;;;;4592647;19;19940;-27
2023/06/06 11:32:23;;;;;;;;;;;19.70;93.80;;;;;;4592093;19;19919;-23
2023/06/06 11:34:05;;;;;;;;;;;19.70;93.40;;;;;;4593580;19;19914;-27
2023/06/06 11:35:38;;;;;;;;;;;19.70;93.70;;;;;;4593347;19;19918;-23
2023/06/06 11:37:09;;;;;;;;;;;19.70;93.90;;;;;;4591974;19;19950;-23
2023/06/06 11:38:41;;;;;;;;;;;19.70;93.70;;;;;;4593437;19;20325;-24
2023/06/06 11:40:12;;;;;;;;;;;19.70;93.70;;;;;;4593430;19;19914;-23
2023/06/06 11:41:44;;;;;;;;;;;19.70;93.40;;;;;;4592577;19;20288;-25
2023/06/06 11:43:15;;;;;;;;;;;19.70;94.00;;;;;;4593223;19;20352;-23
2023/06/06 11:44:48;;;;;;;;;;;19.70;93.40;;;;;;4593595;19;19919;-23
2023/06/06 11:46:19;;;;;;;;;;;19.70;93.60;;;;;;4593626;19;19922;-27
2023/06/06 11:47:51;;;;;;;;;;;19.70;94.10;;;;;;4592056;19;19915;-28
2023/06/06 11:49:22;;;;;;;;;;;19.80;94.20;;;;;;4592072;19;19939;-26
2023/06/06 11:55:40;;;;;;;;;;;19.80;93.90;;;;;;4592794;19;20227;-25
2023/06/06 11:57:11;;;;;;;;;;;19.80;93.70;;;;;;4593739;19;20365;-26
2023/06/06 11:58:42;;;;;;;;;;;19.80;93.30;;;;;;4591995;19;19951;-27
2023/06/06 12:00:18;;;;;;;;;;;19.80;93.30;;;;;;4592462;19;20361;-25
2023/06/06 12:01:52;;;;;;;;;;;19.80;93.50;;;;;;4592971;19;19922;-24
2023/06/06 12:06:24;;;;;;;;;;;19.80;94.20;;;;;;4592069;19;20268;-25
2023/06/06 12:07:59;;;;;;;;;;;19.80;94.20;;;;;;4593222;19;19923;-29
2023/06/06 12:09:30;;;;;;;;;;;19.90;93.60;;;;;;4591981;19;19939;-24
2023/06/06 12:11:21;;;;;;;;;;;19.90;94.30;;;;;;4590657;19;20003;-23
2023/06/06 12:12:52;;;;;;;;;;;19.90;93.80;;;;;;4592437;19;19923;-25
2023/06/06 12:14:23;;;;;;;;;;;19.90;93.50;;;;;;4590750;19;19929;-23
2023/06/06 12:15:58;;;;;;;;;;;19.90;93.90;;;;;;4592193;19;19930;-23
2023/06/06 12:17:29;;;;;;;;;;;19.90;94.30;;;;;;4592034;19;19942;-25
2023/06/06 12:19:02;;;;;;;;;;;19.90;93.90;;;;;;4592642;19;19910;-30
2023/06/06 12:20:35;;;;;;;;;;;19.90;93.80;;;;;;4591081;19;19919;-27
2023/06/06 12:22:06;;;;;;;;;;;19.90;93.50;;;;;;4591697;19;19914;-25
2023/06/06 12:23:40;;;;;;;;;;;19.90;93.80;;;;;;4591459;19;19970;-24
2023/06/06 12:25:11;;;;;;;;;;;19.90;93.40;;;;;;4592261;19;19911;-25
2023/06/06 12:26:45;;;;;;;;;;;19.90;93.80;;;;;;4592655;19;20322;-24
2023/06/06 12:28:16;;;;;;;;;;;19.90;93.90;;;;;;4591782;19;19918;-23
2023/06/06 12:29:50;;;;;;;;;;;19.90;94.00;;;;;;4592176;19;19974;-25
2023/06/06 12:31:22;;;;;;;;;;;19.90;93.50;;;;;;4592707;19;19915;-29
2023/06/06 12:32:53;;;;;;;;;;;19.90;93.50;;;;;;4591456;19;19993;-24
2023/06/06 12:34:48;;;;;;;;;;;19.90;93.30;;;;;;4592730;19;19923;-23
2023/06/06 12:36:20;;;;;;;;;;;19.90;93.40;;;;;;4592834;19;20329;-24
2023/06/06 12:37:50;;;;;;;;;;;19.90;94.20;;;;;;4592524;19;19918;-23
2023/06/06 12:39:22;;;;;;;;;;;19.90;93.60;;;;;;4591219;19;20267;-25
2023/06/06 12:40:55;;;;;;;;;;;19.90;93.50;;;;;;4591457;19;19919;-25
2023/06/06 12:42:26;;;;;;;;;;;19.90;94.10;;;;;;4590672;19;19919;-24
2023/06/06 12:43:57;;;;;;;;;;;19.90;93.40;;;;;;4592224;19;19983;-25
2023/06/06 12:45:29;;;;;;;;;;;19.90;93.80;;;;;;4589753;19;20012;-24
2023/06/06 12:47:00;;;;;;;;;;;19.90;93.10;;;;;;4591682;19;20440;-24
2023/06/06 12:48:33;;;;;;;;;;;19.90;93.30;;;;;;4592299;19;20325;-23
2023/06/06 12:50:04;;;;;;;;;;;19.90;93.30;;;;;;4592522;19;19954;-28
2023/06/06 12:51:38;;;;;;;;;;;19.90;93.40;;;;;;4591774;19;19922;-24
2023/06/06 12:53:12;;;;;;;;;;;19.90;94.20;;;;;;4592129;19;20385;-25
2023/06/06 12:54:43;;;;;;;;;;;20.00;94.70;;;;;;4592086;19;19978;-30
2023/06/06 12:56:14;;;;;;;;;;;20.00;95.10;;;;;;4592361;19;19915;-23
2023/06/06 12:57:49;;;;;;;;;;;20.00;93.90;;;;;;4592680;19;19970;-24
2023/06/06 12:59:23;;;;;;;;;;;20.00;93.80;;;;;;4592079;19;19940;-26
2023/06/06 13:00:54;;;;;;;;;;;20.00;93.00;;;;;;4592800;19;19915;-25
2023/06/06 13:02:25;;;;;;;;;;;20.00;95.80;;;;;;4591607;19;19935;-27
2023/06/06 13:03:59;;;;;;;;;;;20.10;92.90;;;;;;4592392;19;19952;-25
2023/06/06 13:05:30;;;;;;;;;;;20.10;94.40;;;;;;4592237;19;19923;-23
2023/06/06 13:07:06;;;;;;;;;;;20.10;93.30;;;;;;4591526;19;19925;-23
2023/06/06 13:08:38;;;;;;;;;;;20.10;95.00;;;;;;4591893;19;19919;-24
2023/06/06 13:10:11;;;;;;;;;;;20.10;93.80;;;;;;4592638;19;20229;-24
2023/06/06 13:11:42;;;;;;;;;;;20.10;94.30;;;;;;4590738;19;19911;-25
2023/06/06 13:13:13;;;;;;;;;;;20.10;93.20;;;;;;4590515;19;20299;-23
2023/06/06 13:14:44;;;;;;;;;;;20.10;94.60;;;;;;4591641;19;19927;-22
2023/06/06 13:16:15;;;;;;;;;;;20.10;93.60;;;;;;4591838;19;19918;-27
2023/06/06 13:17:47;;;;;;;;;;;20.10;93.50;;;;;;4591604;19;19915;-23
2023/06/06 13:19:18;;;;;;;;;;;20.10;93.40;;;;;;4592121;19;20006;-23
2023/06/06 13:20:51;;;;;;;;;;;20.20;94.00;;;;;;4591465;19;19938;-29
2023/06/06 13:22:22;;;;;;;;;;;20.20;93.60;;;;;;4589901;19;19970;-27
2023/06/06 13:23:58;;;;;;;;;;;20.20;94.10;;;;;;4590311;19;19923;-30
2023/06/06 13:25:29;;;;;;;;;;;20.30;92.70;;;;;;4589400;19;19919;-25
2023/06/06 13:27:01;;;;;;;;;;;20.30;96.20;;;;;;4590476;19;20361;-26
2023/06/06 13:28:32;;;;;;;;;;;20.40;96.40;;;;;;4591154;19;19914;-24
2023/06/06 13:30:03;;;;;;;;;;;20.40;95.00;;;;;;4591274;19;19915;-27
2023/06/06 13:31:35;;;;;;;;;;;20.40;94.30;;;;;;4591546;19;19943;-25
2023/06/06 13:33:06;;;;;;;;;;;20.50;94.80;;;;;;4590212;19;19914;-26
2023/06/06 13:34:37;;;;;;;;;;;20.50;93.30;;;;;;4590700;19;19918;-26